TUI563 GVAC-EGGD
Flight info
| Callsign | TUI563 |
|---|---|
| Flight time | N/A |
| Altitude | 33000 |
| Route | DIMKI1A DIMKI DCT IPERA N873 LIMAL/N0465F340 DCT URQUI DCT GOMER DCT PITAB DCT BIMBO DCT DEGUN DCT TELMU DCT XANEL/N0457F360 DCT RIPEL DCT ADVAT/M079F350 T290 GELPO DCT JABEX DCT GAPLI/N0455F350 DCT SIDDI DCT TOJAQ |
| Aircraft | B738/M-SDE2E3FGHIRWXY/LB1 |
Departure
| Time | 2026-05-01 14:31 |
|---|---|
| Airport | Amílcar Cabral International Airport (GVAC) |
Arrival
| Time | N/A |
|---|---|
| Airport | Bristol Airport (EGGD) |
| Time | Latitude | Longitude | Altitude | Speed | Heading |
|---|---|---|---|---|---|
| 2026-05-01 14:01 | 16.73366 | -22.94497 | 208 ft | 0 kts | 90° |
| 2026-05-01 14:16 | 16.73366 | -22.94509 | 199 ft | 4 kts | 91° |
| 2026-05-01 14:17 | 16.73367 | -22.94537 | 206 ft | 4 kts | 96° |
| 2026-05-01 14:17 | 16.73371 | -22.94565 | 207 ft | 4 kts | 107° |
| 2026-05-01 14:17 | 16.73382 | -22.94589 | 202 ft | 4 kts | 140° |
| 2026-05-01 14:17 | 16.73394 | -22.94596 | 199 ft | 0 kts | 180° |
| 2026-05-01 14:20 | 16.73391 | -22.94595 | 199 ft | 2 kts | 180° |
| 2026-05-01 14:20 | 16.73285 | -22.94594 | 205 ft | 13 kts | 179° |
| 2026-05-01 14:20 | 16.73191 | -22.94593 | 206 ft | 13 kts | 181° |
| 2026-05-01 14:21 | 16.73111 | -22.94597 | 202 ft | 10 kts | 194° |
| 2026-05-01 14:21 | 16.73058 | -22.94647 | 199 ft | 10 kts | 243° |
| 2026-05-01 14:21 | 16.73008 | -22.94690 | 199 ft | 10 kts | 190° |
| 2026-05-01 14:22 | 16.72810 | -22.94689 | 188 ft | 15 kts | 179° |
| 2026-05-01 14:22 | 16.72705 | -22.94689 | 186 ft | 15 kts | 180° |
| 2026-05-01 14:22 | 16.72604 | -22.94689 | 184 ft | 14 kts | 180° |
| 2026-05-01 14:22 | 16.72513 | -22.94688 | 182 ft | 9 kts | 179° |
| 2026-05-01 14:23 | 16.72471 | -22.94687 | 181 ft | 2 kts | 179° |
| 2026-05-01 14:23 | 16.72459 | -22.94687 | 181 ft | 2 kts | 179° |
| 2026-05-01 14:24 | 16.72456 | -22.94687 | 181 ft | 2 kts | 179° |
| 2026-05-01 14:24 | 16.72443 | -22.94687 | 182 ft | 2 kts | 184° |
| 2026-05-01 14:24 | 16.72431 | -22.94692 | 182 ft | 2 kts | 207° |
| 2026-05-01 14:24 | 16.72422 | -22.94700 | 182 ft | 2 kts | 224° |
| 2026-05-01 14:25 | 16.72415 | -22.94710 | 182 ft | 2 kts | 237° |
| 2026-05-01 14:25 | 16.72410 | -22.94721 | 182 ft | 2 kts | 248° |
| 2026-05-01 14:25 | 16.72407 | -22.94733 | 182 ft | 2 kts | 258° |
| 2026-05-01 14:25 | 16.72407 | -22.94748 | 183 ft | 2 kts | 271° |
| 2026-05-01 14:26 | 16.72407 | -22.94763 | 183 ft | 2 kts | 271° |
| 2026-05-01 14:26 | 16.72407 | -22.94793 | 183 ft | 2 kts | 271° |
| 2026-05-01 14:26 | 16.72404 | -22.94819 | 191 ft | 6 kts | 256° |
| 2026-05-01 14:27 | 16.72382 | -22.94855 | 187 ft | 6 kts | 224° |
| 2026-05-01 14:27 | 16.72348 | -22.94879 | 194 ft | 6 kts | 205° |
| 2026-05-01 14:27 | 16.72308 | -22.94884 | 191 ft | 6 kts | 169° |
| 2026-05-01 14:28 | 16.72245 | -22.94834 | 184 ft | 6 kts | 131° |
| 2026-05-01 14:28 | 16.72212 | -22.94812 | 194 ft | 6 kts | 161° |
| 2026-05-01 14:28 | 16.72175 | -22.94816 | 196 ft | 6 kts | 220° |
| 2026-05-01 14:28 | 16.72165 | -22.94854 | 191 ft | 6 kts | 275° |
| 2026-05-01 14:29 | 16.72187 | -22.94878 | 184 ft | 5 kts | 332° |
| 2026-05-01 14:29 | 16.72219 | -22.94884 | 183 ft | 5 kts | 358° |
| 2026-05-01 14:30 | 16.72540 | -22.94887 | 183 ft | 83 kts | 360° |
| 2026-05-01 14:30 | 16.73355 | -22.94893 | 192 ft | 149 kts | 360° |
| 2026-05-01 14:30 | 16.74562 | -22.94892 | 389 ft | 190 kts | 358° |
| 2026-05-01 14:31 | 16.77472 | -22.94997 | 1248 ft | 224 kts | 3° |
| 2026-05-01 14:31 | 16.79059 | -22.94983 | 2026 ft | 231 kts | 3° |
| 2026-05-01 14:31 | 16.80724 | -22.94975 | 2571 ft | 245 kts | 2° |
| 2026-05-01 14:31 | 16.82441 | -22.94980 | 3301 ft | 248 kts | 2° |
| 2026-05-01 14:32 | 16.84189 | -22.94995 | 3992 ft | 255 kts | 1° |
| 2026-05-01 14:32 | 16.85376 | -22.95004 | 4410 ft | 260 kts | 1° |
| 2026-05-01 14:32 | 16.87829 | -22.95031 | 5290 ft | 267 kts | 360° |
| 2026-05-01 14:32 | 16.89713 | -22.95054 | 5841 ft | 275 kts | 359° |
| 2026-05-01 14:33 | 16.91632 | -22.94926 | 6434 ft | 281 kts | 17° |
| 2026-05-01 14:33 | 16.93441 | -22.94156 | 7118 ft | 282 kts | 27° |
| 2026-05-01 14:33 | 16.95130 | -22.93075 | 7731 ft | 287 kts | 33° |
| 2026-05-01 14:33 | 16.96778 | -22.91870 | 8299 ft | 292 kts | 35° |
| 2026-05-01 14:34 | 16.98443 | -22.90621 | 8867 ft | 297 kts | 35° |
| 2026-05-01 14:34 | 17.00133 | -22.89356 | 9480 ft | 300 kts | 35° |
| 2026-05-01 14:34 | 17.01840 | -22.88089 | 10043 ft | 303 kts | 35° |
| 2026-05-01 14:34 | 17.03596 | -22.86796 | 10395 ft | 317 kts | 35° |
| 2026-05-01 14:35 | 17.05455 | -22.85435 | 10533 ft | 336 kts | 35° |
| 2026-05-01 14:35 | 17.06749 | -22.84491 | 10633 ft | 348 kts | 35° |
| 2026-05-01 14:35 | 17.08788 | -22.83007 | 10767 ft | 366 kts | 35° |
| 2026-05-01 14:35 | 17.11657 | -22.80928 | 11060 ft | 384 kts | 35° |
| 2026-05-01 14:36 | 17.13120 | -22.79869 | 11328 ft | 388 kts | 35° |
| 2026-05-01 14:36 | 17.16077 | -22.77729 | 12017 ft | 392 kts | 35° |
| 2026-05-01 14:36 | 17.18324 | -22.76104 | 12547 ft | 394 kts | 35° |
| 2026-05-01 14:36 | 17.20590 | -22.74464 | 13025 ft | 398 kts | 35° |
| 2026-05-01 14:37 | 17.22868 | -22.72815 | 13560 ft | 400 kts | 35° |
| 2026-05-01 14:37 | 17.24422 | -22.71690 | 13884 ft | 402 kts | 35° |
| 2026-05-01 14:37 | 17.26732 | -22.70018 | 14390 ft | 405 kts | 35° |
| 2026-05-01 14:37 | 17.29051 | -22.68338 | 14851 ft | 408 kts | 34° |
| 2026-05-01 14:38 | 17.31392 | -22.66642 | 15308 ft | 410 kts | 34° |
| 2026-05-01 14:38 | 17.33748 | -22.64934 | 15743 ft | 414 kts | 34° |
| 2026-05-01 14:38 | 17.36123 | -22.63211 | 16161 ft | 417 kts | 34° |
| 2026-05-01 14:38 | 17.38511 | -22.61480 | 16621 ft | 418 kts | 34° |
| 2026-05-01 14:39 | 17.40879 | -22.59762 | 17046 ft | 421 kts | 34° |
| 2026-05-01 14:39 | 17.43324 | -22.57988 | 17475 ft | 423 kts | 34° |
| 2026-05-01 14:39 | 17.45750 | -22.56226 | 17896 ft | 425 kts | 34° |
| 2026-05-01 14:39 | 17.48190 | -22.54455 | 18258 ft | 428 kts | 34° |
| 2026-05-01 14:40 | 17.50611 | -22.52697 | 18603 ft | 431 kts | 34° |
| 2026-05-01 14:40 | 17.53078 | -22.50905 | 18955 ft | 433 kts | 34° |
| 2026-05-01 14:40 | 17.55563 | -22.49098 | 19302 ft | 436 kts | 34° |
| 2026-05-01 14:40 | 17.58059 | -22.47283 | 19619 ft | 439 kts | 33° |
| 2026-05-01 14:41 | 17.60575 | -22.45453 | 19952 ft | 441 kts | 33° |
| 2026-05-01 14:41 | 17.63138 | -22.43587 | 20308 ft | 443 kts | 33° |
| 2026-05-01 14:41 | 17.65674 | -22.41741 | 20618 ft | 446 kts | 33° |
| 2026-05-01 14:41 | 17.68193 | -22.39906 | 20931 ft | 448 kts | 33° |
| 2026-05-01 14:42 | 17.70758 | -22.38038 | 21221 ft | 450 kts | 33° |
| 2026-05-01 14:42 | 17.73334 | -22.36162 | 21507 ft | 453 kts | 33° |
| 2026-05-01 14:42 | 17.75928 | -22.34271 | 21790 ft | 455 kts | 33° |
| 2026-05-01 14:42 | 17.78528 | -22.32375 | 22069 ft | 457 kts | 33° |
| 2026-05-01 14:43 | 17.81142 | -22.30467 | 22332 ft | 459 kts | 33° |
| 2026-05-01 14:43 | 17.83768 | -22.28550 | 22589 ft | 461 kts | 33° |
| 2026-05-01 14:43 | 17.86412 | -22.26619 | 22848 ft | 463 kts | 33° |
| 2026-05-01 14:43 | 17.89059 | -22.24692 | 23100 ft | 465 kts | 32° |
| 2026-05-01 14:44 | 17.91789 | -22.22863 | 23339 ft | 466 kts | 29° |
| 2026-05-01 14:44 | 17.97413 | -22.19429 | 23809 ft | 469 kts | 27° |
| 2026-05-01 14:44 | 18.00248 | -22.17736 | 24048 ft | 470 kts | 27° |
| 2026-05-01 14:45 | 18.03092 | -22.16030 | 24284 ft | 472 kts | 27° |
| 2026-05-01 14:45 | 18.08805 | -22.12558 | 24716 ft | 475 kts | 28° |
| 2026-05-01 14:45 | 18.11665 | -22.10803 | 24929 ft | 477 kts | 28° |
| 2026-05-01 14:46 | 18.14530 | -22.09038 | 25127 ft | 479 kts | 28° |
| 2026-05-01 14:46 | 18.20294 | -22.05478 | 25549 ft | 482 kts | 28° |
| 2026-05-01 14:46 | 18.23188 | -22.03690 | 25739 ft | 483 kts | 28° |
| 2026-05-01 14:47 | 18.26088 | -22.01899 | 25942 ft | 484 kts | 28° |
| 2026-05-01 14:47 | 18.28998 | -22.00099 | 26126 ft | 486 kts | 28° |
| 2026-05-01 14:47 | 18.31919 | -21.98294 | 26319 ft | 487 kts | 28° |
| 2026-05-01 14:48 | 18.37785 | -21.94668 | 26699 ft | 491 kts | 27° |
| 2026-05-01 14:48 | 18.40733 | -21.92844 | 26873 ft | 492 kts | 27° |
| 2026-05-01 14:48 | 18.46654 | -21.89179 | 27230 ft | 495 kts | 27° |
| 2026-05-01 14:49 | 18.52607 | -21.85492 | 27558 ft | 498 kts | 27° |
| 2026-05-01 14:49 | 18.58592 | -21.81780 | 27871 ft | 501 kts | 27° |
| 2026-05-01 14:50 | 18.63585 | -21.78681 | 28207 ft | 500 kts | 27° |
| 2026-05-01 14:50 | 18.70583 | -21.74335 | 28782 ft | 499 kts | 27° |
| 2026-05-01 14:51 | 18.73571 | -21.72477 | 29005 ft | 499 kts | 27° |
| 2026-05-01 14:51 | 18.79556 | -21.68755 | 29450 ft | 499 kts | 27° |
| 2026-05-01 14:52 | 18.85496 | -21.65058 | 29945 ft | 498 kts | 27° |
| 2026-05-01 14:52 | 18.88473 | -21.63204 | 30135 ft | 499 kts | 27° |
| 2026-05-01 14:52 | 18.94462 | -21.59472 | 30569 ft | 499 kts | 27° |
| 2026-05-01 14:53 | 18.97452 | -21.57608 | 30799 ft | 499 kts | 27° |
| 2026-05-01 14:53 | 19.00438 | -21.55746 | 31028 ft | 499 kts | 26° |
| 2026-05-01 14:53 | 19.03429 | -21.53879 | 31213 ft | 500 kts | 26° |
| 2026-05-01 14:53 | 19.06421 | -21.52011 | 31436 ft | 499 kts | 27° |
| 2026-05-01 14:54 | 19.09407 | -21.50144 | 31673 ft | 498 kts | 26° |
| 2026-05-01 14:54 | 19.12393 | -21.48280 | 31872 ft | 498 kts | 26° |
| 2026-05-01 14:54 | 19.15382 | -21.46414 | 32036 ft | 500 kts | 26° |
| 2026-05-01 14:54 | 19.18380 | -21.44539 | 32213 ft | 501 kts | 26° |
| 2026-05-01 14:55 | 19.21371 | -21.42667 | 32449 ft | 500 kts | 26° |
| 2026-05-01 14:55 | 19.24360 | -21.40794 | 32691 ft | 499 kts | 26° |
| 2026-05-01 14:55 | 19.27355 | -21.38918 | 32879 ft | 499 kts | 26° |
| 2026-05-01 14:55 | 19.30346 | -21.37044 | 33039 ft | 500 kts | 26° |
| 2026-05-01 14:56 | 19.33342 | -21.35167 | 33031 ft | 502 kts | 26° |
| 2026-05-01 14:56 | 19.39350 | -21.31399 | 33044 ft | 501 kts | 26° |
| 2026-05-01 14:57 | 19.45328 | -21.27644 | 33046 ft | 498 kts | 26° |
| 2026-05-01 14:57 | 19.54252 | -21.22036 | 33037 ft | 496 kts | 26° |
| 2026-05-01 14:58 | 19.60186 | -21.18304 | 33037 ft | 495 kts | 26° |
| 2026-05-01 14:58 | 19.66117 | -21.14570 | 33042 ft | 496 kts | 26° |
| 2026-05-01 14:59 | 19.72046 | -21.10833 | 33037 ft | 497 kts | 26° |
| 2026-05-01 14:59 | 19.77993 | -21.07084 | 33042 ft | 498 kts | 26° |
| 2026-05-01 15:00 | 19.86939 | -21.01435 | 33038 ft | 500 kts | 26° |
| 2026-05-01 15:01 | 19.92919 | -20.97655 | 33040 ft | 500 kts | 26° |
| 2026-05-01 15:01 | 19.98905 | -20.93868 | 33038 ft | 501 kts | 26° |
| 2026-05-01 15:02 | 20.04900 | -20.90073 | 33033 ft | 502 kts | 26° |
| 2026-05-01 15:02 | 20.10900 | -20.86270 | 33042 ft | 502 kts | 26° |
| 2026-05-01 15:03 | 20.16903 | -20.82460 | 33038 ft | 503 kts | 26° |
| 2026-05-01 15:03 | 20.22910 | -20.78645 | 33034 ft | 502 kts | 26° |
| 2026-05-01 15:04 | 20.28910 | -20.74831 | 33036 ft | 502 kts | 26° |
| 2026-05-01 15:04 | 20.34907 | -20.71016 | 33033 ft | 502 kts | 26° |
| 2026-05-01 15:05 | 20.40899 | -20.67199 | 33033 ft | 502 kts | 26° |
| 2026-05-01 15:05 | 20.46885 | -20.63374 | 33039 ft | 501 kts | 26° |
| 2026-05-01 15:06 | 20.52870 | -20.59548 | 33036 ft | 502 kts | 26° |
| 2026-05-01 15:06 | 20.58853 | -20.55718 | 33030 ft | 502 kts | 26° |
| 2026-05-01 15:07 | 20.64835 | -20.51884 | 33028 ft | 502 kts | 26° |
| 2026-05-01 15:07 | 20.70826 | -20.48043 | 33024 ft | 502 kts | 26° |
| 2026-05-01 15:08 | 20.76809 | -20.44203 | 33028 ft | 502 kts | 26° |
| 2026-05-01 15:08 | 20.82798 | -20.40355 | 33029 ft | 502 kts | 26° |
| 2026-05-01 15:09 | 20.88788 | -20.36503 | 33026 ft | 503 kts | 26° |
| 2026-05-01 15:09 | 20.94791 | -20.32639 | 33028 ft | 503 kts | 26° |
| 2026-05-01 15:10 | 21.00796 | -20.28771 | 33059 ft | 503 kts | 26° |
| 2026-05-01 15:10 | 21.09801 | -20.22963 | 33065 ft | 505 kts | 26° |
| 2026-05-01 15:11 | 21.18839 | -20.17125 | 33067 ft | 506 kts | 26° |
| 2026-05-01 15:12 | 21.24874 | -20.13221 | 33066 ft | 507 kts | 26° |
| 2026-05-01 15:12 | 21.33944 | -20.07349 | 33067 ft | 508 kts | 26° |
| 2026-05-01 15:14 | 21.49109 | -19.97514 | 33063 ft | 510 kts | 26° |
| 2026-05-01 15:14 | 21.58225 | -19.91585 | 33067 ft | 511 kts | 26° |
| 2026-05-01 15:15 | 21.70398 | -19.83657 | 33066 ft | 512 kts | 26° |
| 2026-05-01 15:16 | 21.82588 | -19.75703 | 33066 ft | 512 kts | 26° |
| 2026-05-01 15:18 | 21.97812 | -19.65745 | 33064 ft | 512 kts | 26° |
| 2026-05-01 15:19 | 22.09966 | -19.57778 | 33067 ft | 511 kts | 26° |
| 2026-05-01 15:19 | 22.18051 | -19.52475 | 33063 ft | 511 kts | 26° |
| 2026-05-01 15:20 | 22.27165 | -19.46488 | 33049 ft | 511 kts | 26° |
| 2026-05-01 15:21 | 22.33237 | -19.42490 | 33038 ft | 511 kts | 26° |
| 2026-05-01 15:21 | 22.39303 | -19.38495 | 33047 ft | 510 kts | 26° |
| 2026-05-01 15:22 | 22.48391 | -19.32499 | 33050 ft | 510 kts | 26° |
| 2026-05-01 15:22 | 22.54447 | -19.28499 | 33048 ft | 510 kts | 27° |
| 2026-05-01 15:23 | 22.60503 | -19.24494 | 33044 ft | 510 kts | 27° |
| 2026-05-01 15:23 | 22.66553 | -19.20490 | 33049 ft | 509 kts | 27° |
| 2026-05-01 15:24 | 22.72597 | -19.16488 | 33042 ft | 509 kts | 27° |
| 2026-05-01 15:24 | 22.78640 | -19.12480 | 33049 ft | 509 kts | 27° |
| 2026-05-01 15:25 | 22.84674 | -19.08473 | 33041 ft | 509 kts | 27° |
| 2026-05-01 15:25 | 22.90719 | -19.04455 | 33048 ft | 509 kts | 27° |
| 2026-05-01 15:26 | 22.96758 | -19.00436 | 33046 ft | 510 kts | 27° |
| 2026-05-01 15:26 | 23.02804 | -18.96411 | 33051 ft | 510 kts | 27° |
| 2026-05-01 15:27 | 23.08858 | -18.92375 | 33048 ft | 511 kts | 27° |
| 2026-05-01 15:28 | 23.17945 | -18.86308 | 33049 ft | 511 kts | 27° |
| 2026-05-01 15:28 | 23.24009 | -18.82254 | 33046 ft | 511 kts | 27° |
| 2026-05-01 15:29 | 23.33098 | -18.76168 | 33055 ft | 512 kts | 27° |
| 2026-05-01 15:30 | 23.45231 | -18.68033 | 33057 ft | 513 kts | 27° |
| 2026-05-01 15:31 | 23.63444 | -18.55780 | 33054 ft | 513 kts | 27° |
| 2026-05-01 15:32 | 23.75589 | -18.47590 | 33055 ft | 513 kts | 27° |
| 2026-05-01 15:34 | 23.93812 | -18.35267 | 33091 ft | 514 kts | 27° |